Time;durP1;ratioP1;P1;durP2;ratioP2;P2;SDS_P1;SDS_P2;PMS_P1;PMS_P2;Temp;Humidity;BMP_temperature;BMP_pressure;BME280_temperature;BME280_humidity;BME280_pressure;Samples;Min_cycle;Max_cycle;Signal;HPM_P1;HPM_P2
2024/01/14 00:01:56;;;;;;;23.70;2.97;;;5.80;99.90;;;;;;4881971;29;20052;-76
2024/01/14 00:04:22;;;;;;;17.42;2.58;;;5.70;99.90;;;;;;4898450;29;20412;-76
2024/01/14 00:06:50;;;;;;;9.25;2.17;;;5.80;99.90;;;;;;4881616;29;20060;-77
2024/01/14 00:09:19;;;;;;;8.80;1.52;;;5.80;99.90;;;;;;4881497;29;20088;-76
2024/01/14 00:11:45;;;;;;;17.05;1.65;;;5.80;99.90;;;;;;4881737;29;20488;-76
2024/01/14 00:14:10;;;;;;;8.55;1.65;;;5.70;99.90;;;;;;4881960;29;20084;-76
2024/01/14 00:16:36;;;;;;;13.55;2.17;;;5.70;99.90;;;;;;4881856;29;20053;-76
2024/01/14 00:19:03;;;;;;;19.83;2.10;;;5.70;99.90;;;;;;4898365;29;20400;-76
2024/01/14 00:21:29;;;;;;;14.32;1.88;;;5.70;99.90;;;;;;4881611;29;20092;-76
2024/01/14 00:23:55;;;;;;;12.93;1.80;;;5.70;99.90;;;;;;4881658;29;20077;-76
2024/01/14 00:26:20;;;;;;;10.82;1.60;;;5.70;99.90;;;;;;4881692;29;20071;-76
2024/01/14 00:28:49;;;;;;;7.70;0.70;;;5.80;99.90;;;;;;4881658;29;20088;-76
2024/01/14 00:31:14;;;;;;;15.82;1.52;;;5.70;99.90;;;;;;4881798;29;20056;-76
2024/01/14 00:33:40;;;;;;;11.60;1.65;;;5.70;99.90;;;;;;4881482;29;20053;-76
2024/01/14 00:36:07;;;;;;;7.95;1.40;;;5.70;99.90;;;;;;4881492;29;20060;-76
2024/01/14 00:38:32;;;;;;;13.98;1.75;;;5.60;99.90;;;;;;4883035;29;20164;-76
2024/01/14 00:40:58;;;;;;;10.50;1.42;;;5.50;99.90;;;;;;4885215;29;20131;-76
2024/01/14 00:43:24;;;;;;;15.93;1.70;;;5.40;99.90;;;;;;4885296;29;20071;-76
2024/01/14 00:45:50;;;;;;;14.15;2.22;;;5.50;99.90;;;;;;4885139;29;20406;-76
2024/01/14 00:48:18;;;;;;;21.52;4.30;;;5.50;99.90;;;;;;4885021;29;20045;-76
2024/01/14 00:50:44;;;;;;;20.83;2.60;;;5.50;99.90;;;;;;4884971;29;20400;-76
2024/01/14 00:53:10;;;;;;;9.27;1.38;;;5.50;99.90;;;;;;4885222;29;20481;-76
2024/01/14 00:55:37;;;;;;;11.43;2.13;;;5.50;99.90;;;;;;4884987;29;20492;-76
2024/01/14 00:58:05;;;;;;;8.27;2.03;;;5.50;99.90;;;;;;4884975;29;20135;-76
2024/01/14 01:00:31;;;;;;;17.52;2.90;;;5.50;99.90;;;;;;4884799;29;20510;-76
2024/01/14 01:02:59;;;;;;;17.20;3.78;;;5.50;99.90;;;;;;4901535;29;20052;-76
2024/01/14 01:05:28;;;;;;;16.73;1.73;;;5.60;99.90;;;;;;4884489;29;20067;-76
2024/01/14 01:07:53;;;;;;;14.23;2.60;;;5.60;99.90;;;;;;4884775;29;20057;-76
2024/01/14 01:10:19;;;;;;;9.48;2.58;;;5.60;99.90;;;;;;4884610;29;20077;-76
2024/01/14 01:12:45;;;;;;;10.60;2.45;;;5.60;99.90;;;;;;4884752;29;20131;-76
2024/01/14 01:15:10;;;;;;;14.30;3.15;;;5.60;99.90;;;;;;4884910;29;20055;-76
2024/01/14 01:17:36;;;;;;;18.05;1.75;;;5.60;99.90;;;;;;4884565;29;20132;-76
2024/01/14 01:20:03;;;;;;;17.15;2.55;;;5.60;99.90;;;;;;4884485;29;20104;-76
2024/01/14 01:22:28;;;;;;;17.20;2.97;;;5.60;99.90;;;;;;4884595;29;20131;-76
2024/01/14 01:24:54;;;;;;;16.58;2.45;;;5.60;99.90;;;;;;4884414;29;20135;-76
2024/01/14 01:27:20;;;;;;;15.48;1.83;;;5.60;99.90;;;;;;4884281;29;20051;-76
2024/01/14 01:29:49;;;;;;;13.65;2.20;;;5.60;99.90;;;;;;4884285;29;20068;-76
2024/01/14 01:32:15;;;;;;;18.33;2.28;;;5.60;99.90;;;;;;4901218;29;20040;-76
2024/01/14 01:34:42;;;;;;;20.85;3.17;;;5.60;99.90;;;;;;4884277;29;20415;-76
2024/01/14 01:37:07;;;;;;;20.77;2.88;;;5.60;99.90;;;;;;4884524;29;20048;-76
2024/01/14 01:39:33;;;;;;;19.75;2.80;;;5.60;99.90;;;;;;4884205;29;20120;-76
2024/01/14 01:41:59;;;;;;;22.33;3.13;;;5.60;99.90;;;;;;4884061;29;20080;-76
2024/01/14 01:44:24;;;;;;;20.23;4.10;;;5.60;99.90;;;;;;4883939;29;20055;-76
2024/01/14 01:46:51;;;;;;;20.35;3.50;;;5.60;99.90;;;;;;4884035;29;20049;-76
2024/01/14 01:49:17;;;;;;;19.08;2.25;;;5.50;99.90;;;;;;4883725;29;20103;-76
2024/01/14 01:51:49;;;;;;;18.05;2.97;;;5.50;99.90;;;;;;4884103;29;20048;-76
2024/01/14 01:54:19;;;;;;;23.23;3.63;;;5.50;99.90;;;;;;4884091;29;20072;-76
2024/01/14 01:56:45;;;;;;;15.18;2.70;;;5.50;99.90;;;;;;4883886;29;20052;-76
2024/01/14 01:59:12;;;;;;;12.63;2.50;;;5.50;99.90;;;;;;4883924;29;20445;-76
2024/01/14 02:01:38;;;;;;;15.85;2.58;;;5.50;99.90;;;;;;4883795;29;20048;-76
2024/01/14 02:04:06;;;;;;;10.25;1.42;;;5.50;99.90;;;;;;4884055;29;20060;-76
2024/01/14 02:06:34;;;;;;;21.23;3.55;;;5.50;99.90;;;;;;4883373;29;20073;-76
2024/01/14 02:08:59;;;;;;;20.35;2.63;;;5.50;99.90;;;;;;4883870;29;20127;-76
2024/01/14 02:11:25;;;;;;;11.20;1.83;;;5.60;99.90;;;;;;4883470;29;20201;-76
2024/01/14 02:13:51;;;;;;;10.02;2.40;;;5.50;99.90;;;;;;4883556;29;20040;-76
2024/01/14 02:16:19;;;;;;;17.90;2.25;;;5.40;99.90;;;;;;4883658;29;20100;-76
2024/01/14 02:18:44;;;;;;;20.60;2.33;;;5.30;99.90;;;;;;4883576;29;20048;-76
2024/01/14 02:21:17;;;;;;;23.75;3.38;;;5.20;99.90;;;;;;4883681;29;20059;-76
2024/01/14 02:23:46;;;;;;;19.20;3.83;;;5.20;99.90;;;;;;4883400;29;20136;-76
2024/01/14 02:26:12;;;;;;;13.48;2.35;;;5.20;99.90;;;;;;4883234;29;20149;-76
2024/01/14 02:28:39;;;;;;;13.90;3.83;;;5.10;99.90;;;;;;4899958;29;20131;-76
2024/01/14 02:31:04;;;;;;;13.52;1.90;;;5.10;99.90;;;;;;4883358;29;20056;-76
2024/01/14 02:33:30;;;;;;;13.50;2.25;;;5.10;99.90;;;;;;4883477;29;20056;-76
2024/01/14 02:35:55;;;;;;;21.75;4.38;;;5.10;99.90;;;;;;4883099;29;20560;-76
2024/01/14 02:38:21;;;;;;;17.00;2.78;;;5.10;99.90;;;;;;4883309;29;20149;-76
2024/01/14 02:40:47;;;;;;;18.40;4.65;;;5.20;99.90;;;;;;4883058;29;20048;-76
2024/01/14 02:43:12;;;;;;;23.70;3.15;;;5.20;99.90;;;;;;4883322;29;20056;-76
2024/01/14 02:45:38;;;;;;;13.55;2.53;;;5.20;99.90;;;;;;4883071;29;20377;-76
2024/01/14 02:48:13;;;;;;;17.95;4.68;;;5.20;99.90;;;;;;4883207;29;20048;-76
2024/01/14 02:50:39;;;;;;;24.02;3.58;;;5.20;99.90;;;;;;4882762;29;20096;-76
2024/01/14 02:53:04;;;;;;;11.15;2.08;;;5.20;99.90;;;;;;4882966;29;20053;-76
2024/01/14 02:55:30;;;;;;;14.70;2.00;;;5.20;99.90;;;;;;4882820;29;20054;-76
2024/01/14 02:57:57;;;;;;;10.32;1.95;;;5.20;99.90;;;;;;4883066;29;20489;-76
2024/01/14 03:00:22;;;;;;;9.95;2.30;;;5.20;99.90;;;;;;4882673;29;20063;-76
2024/01/14 03:02:48;;;;;;;10.05;1.77;;;5.30;99.90;;;;;;4881860;29;20052;-76
2024/01/14 03:05:14;;;;;;;18.08;3.58;;;5.20;99.90;;;;;;4899013;29;20048;-77
2024/01/14 03:07:40;;;;;;;6.20;1.55;;;5.20;99.90;;;;;;4899542;29;20053;-76
2024/01/14 03:10:08;;;;;;;17.63;2.03;;;5.10;99.90;;;;;;4882430;29;20045;-76
2024/01/14 03:12:34;;;;;;;15.63;2.25;;;5.10;99.90;;;;;;4882751;29;20362;-76
2024/01/14 03:15:00;;;;;;;17.00;2.10;;;5.10;99.90;;;;;;4899399;29;20674;-77
2024/01/14 03:17:25;;;;;;;8.45;1.60;;;5.00;99.90;;;;;;4882301;29;20040;-77
2024/01/14 03:19:51;;;;;;;10.52;3.15;;;5.00;99.90;;;;;;4882353;29;20127;-77
2024/01/14 03:22:17;;;;;;;19.05;3.05;;;5.00;99.90;;;;;;4882350;29;20090;-77
2024/01/14 03:24:45;;;;;;;12.98;1.85;;;5.00;99.90;;;;;;4882546;29;20160;-76
2024/01/14 03:27:11;;;;;;;14.98;3.03;;;4.90;99.90;;;;;;4881717;29;20108;-76
2024/01/14 03:29:37;;;;;;;9.13;2.20;;;4.90;99.90;;;;;;4882427;29;20400;-76
2024/01/14 03:32:02;;;;;;;14.18;2.45;;;4.90;99.90;;;;;;4882519;29;20397;-76
2024/01/14 03:34:28;;;;;;;11.70;1.92;;;4.90;99.90;;;;;;4882245;29;20392;-76
2024/01/14 03:36:54;;;;;;;16.60;2.28;;;4.90;99.90;;;;;;4882273;29;20048;-76
2024/01/14 03:39:19;;;;;;;18.67;2.58;;;4.80;99.90;;;;;;4882034;29;20044;-76
2024/01/14 03:41:45;;;;;;;13.80;1.70;;;4.80;99.90;;;;;;4882379;29;20053;-76
2024/01/14 03:44:11;;;;;;;18.00;2.45;;;4.80;99.90;;;;;;4882330;29;20139;-76
2024/01/14 03:46:36;;;;;;;12.45;1.98;;;4.90;99.90;;;;;;4882043;29;20087;-76
2024/01/14 03:49:02;;;;;;;17.73;2.42;;;4.90;99.90;;;;;;4881828;29;20049;-76
2024/01/14 03:51:27;;;;;;;12.57;2.25;;;4.90;99.90;;;;;;4881883;29;20543;-76
2024/01/14 03:53:53;;;;;;;17.42;2.40;;;4.90;99.90;;;;;;4881942;29;20083;-76
2024/01/14 03:56:19;;;;;;;14.85;2.10;;;5.00;99.90;;;;;;4898706;29;20059;-76
2024/01/14 03:58:44;;;;;;;16.98;2.72;;;5.00;99.90;;;;;;4882219;29;20056;-76
2024/01/14 04:01:17;;;;;;;15.68;3.20;;;5.00;99.90;;;;;;4882005;29;20404;-76
2024/01/14 04:03:43;;;;;;;10.55;2.15;;;4.90;99.90;;;;;;4881674;29;20398;-76
2024/01/14 04:06:10;;;;;;;9.93;2.33;;;4.90;99.90;;;;;;4881441;29;20112;-76
2024/01/14 04:08:36;;;;;;;11.23;3.17;;;4.90;99.90;;;;;;4881495;29;20105;-76
2024/01/14 04:11:02;;;;;;;14.02;2.20;;;4.90;99.90;;;;;;4881811;29;20044;-76
2024/01/14 04:13:27;;;;;;;14.32;2.92;;;4.90;99.90;;;;;;4884928;29;20040;-76
2024/01/14 04:15:56;;;;;;;14.65;2.17;;;4.90;99.90;;;;;;4887774;29;20048;-76
2024/01/14 04:18:22;;;;;;;14.23;2.90;;;4.90;99.90;;;;;;4887816;29;20139;-76
2024/01/14 04:20:48;;;;;;;13.15;1.70;;;4.90;99.90;;;;;;4888121;29;20135;-76
2024/01/14 04:23:13;;;;;;;20.65;2.58;;;4.90;99.90;;;;;;4904750;29;20123;-76
2024/01/14 04:25:39;;;;;;;11.73;2.13;;;5.00;99.90;;;;;;4887925;29;20441;-76
2024/01/14 04:28:07;;;;;;;10.23;1.15;;;5.00;99.90;;;;;;4888042;29;20119;-76
2024/01/14 04:30:33;;;;;;;20.88;2.10;;;4.90;99.90;;;;;;4878462;29;20052;-76
2024/01/14 04:32:58;;;;;;;11.82;1.55;;;4.80;99.90;;;;;;4869425;29;20430;-76
2024/01/14 04:35:24;;;;;;;8.52;2.08;;;4.70;99.90;;;;;;4869089;29;20395;-76
2024/01/14 04:37:49;;;;;;;15.05;1.50;;;4.60;99.90;;;;;;4869192;29;20047;-76
2024/01/14 04:40:15;;;;;;;8.18;1.58;;;4.60;99.90;;;;;;4869407;29;20045;-76
2024/01/14 04:42:41;;;;;;;12.35;1.75;;;4.60;99.90;;;;;;4869068;29;20135;-76
2024/01/14 04:45:07;;;;;;;18.33;2.05;;;4.60;99.90;;;;;;4868988;29;20144;-76
2024/01/14 04:47:33;;;;;;;14.48;2.10;;;4.60;99.90;;;;;;4869274;29;20057;-76
2024/01/14 04:49:59;;;;;;;19.02;2.10;;;4.60;99.90;;;;;;4868885;29;20101;-76
2024/01/14 04:52:24;;;;;;;19.38;3.30;;;4.70;99.90;;;;;;4885798;29;20049;-76
2024/01/14 04:54:50;;;;;;;45.88;5.05;;;4.60;99.90;;;;;;4869064;29;20097;-76
2024/01/14 04:57:16;;;;;;;11.90;3.55;;;4.70;99.90;;;;;;4869289;29;20477;-76
2024/01/14 04:59:41;;;;;;;17.00;2.15;;;4.60;99.90;;;;;;4868880;29;20572;-76
2024/01/14 05:02:07;;;;;;;16.17;2.83;;;4.70;99.90;;;;;;4868897;29;20045;-76
2024/01/14 05:04:33;;;;;;;18.48;2.33;;;4.70;99.90;;;;;;4868785;29;20053;-76
2024/01/14 05:07:01;;;;;;;24.40;3.40;;;4.60;99.90;;;;;;4868759;29;20061;-76
2024/01/14 05:09:26;;;;;;;15.50;3.17;;;4.60;99.90;;;;;;4868824;29;20049;-76
2024/01/14 05:11:52;;;;;;;13.70;2.50;;;4.60;99.90;;;;;;4869167;29;20060;-76
2024/01/14 05:14:18;;;;;;;16.13;2.33;;;4.50;99.90;;;;;;4868706;29;20087;-76
2024/01/14 05:16:43;;;;;;;21.73;5.15;;;4.60;99.90;;;;;;4868591;29;20057;-76
2024/01/14 05:19:09;;;;;;;17.30;4.50;;;4.50;99.90;;;;;;4885460;29;20041;-76
2024/01/14 05:21:35;;;;;;;10.88;2.30;;;4.50;99.90;;;;;;4868829;29;20120;-76
2024/01/14 05:24:03;;;;;;;11.93;2.03;;;4.50;99.90;;;;;;4868302;29;20131;-76
2024/01/14 05:26:29;;;;;;;14.55;2.50;;;4.50;99.90;;;;;;4865350;29;20440;-76
2024/01/14 05:28:59;;;;;;;12.82;2.17;;;4.50;99.90;;;;;;4865643;29;20465;-76
2024/01/14 05:31:25;;;;;;;13.73;2.22;;;4.50;99.90;;;;;;4865663;29;20049;-76
2024/01/14 05:33:51;;;;;;;12.25;2.25;;;4.50;99.90;;;;;;4865867;29;20441;-76
2024/01/14 05:36:16;;;;;;;17.30;2.65;;;4.60;99.90;;;;;;4865746;29;20049;-76
2024/01/14 05:38:43;;;;;;;18.90;3.05;;;4.60;99.90;;;;;;4866012;29;20053;-76
2024/01/14 05:41:14;;;;;;;15.63;2.97;;;4.60;99.90;;;;;;4865905;29;20053;-76
2024/01/14 05:43:40;;;;;;;16.58;1.90;;;4.60;99.90;;;;;;4865525;29;20056;-76
2024/01/14 05:46:05;;;;;;;10.85;2.08;;;4.60;99.90;;;;;;4865674;29;20041;-76
2024/01/14 05:48:31;;;;;;;10.45;1.02;;;4.70;99.90;;;;;;4865549;29;20136;-76
2024/01/14 05:50:57;;;;;;;10.27;1.50;;;4.70;99.90;;;;;;4865479;29;20152;-76
2024/01/14 05:53:23;;;;;;;11.63;1.63;;;4.70;99.90;;;;;;4865562;29;20056;-76
2024/01/14 05:55:48;;;;;;;11.30;1.58;;;4.70;99.90;;;;;;4865413;29;20044;-76
2024/01/14 05:58:14;;;;;;;14.82;1.65;;;4.70;99.90;;;;;;4865496;29;20495;-76
2024/01/14 06:00:39;;;;;;;15.13;2.30;;;4.70;99.90;;;;;;4882038;29;20136;-76
2024/01/14 06:03:05;;;;;;;10.38;1.10;;;4.60;99.90;;;;;;4865370;29;20132;-76
2024/01/14 06:05:40;;;;;;;6.82;1.58;;;4.60;99.90;;;;;;4865089;29;20052;-76
2024/01/14 06:08:11;;;;;;;23.45;3.17;;;4.60;99.90;;;;;;4865234;29;20053;-76
2024/01/14 06:10:38;;;;;;;11.73;1.65;;;4.60;99.90;;;;;;4864945;29;20053;-76
2024/01/14 06:13:04;;;;;;;15.43;2.72;;;4.60;99.90;;;;;;4865136;29;20105;-76
2024/01/14 06:15:30;;;;;;;14.50;2.40;;;4.60;99.90;;;;;;4881694;29;20045;-76
2024/01/14 06:17:55;;;;;;;12.98;4.03;;;4.50;99.90;;;;;;4865267;29;20096;-76
2024/01/14 06:20:21;;;;;;;11.60;1.95;;;4.40;99.90;;;;;;4864984;29;20113;-76
2024/01/14 06:22:47;;;;;;;17.48;1.77;;;4.40;99.90;;;;;;4865243;29;20049;-76
2024/01/14 06:25:13;;;;;;;14.07;3.15;;;4.30;99.90;;;;;;4863850;29;20481;-76
2024/01/14 06:27:38;;;;;;;13.98;3.17;;;4.20;99.90;;;;;;4865505;29;20396;-76
2024/01/14 06:30:04;;;;;;;16.48;2.33;;;4.20;99.90;;;;;;4864275;29;20412;-76
2024/01/14 06:32:31;;;;;;;20.25;2.42;;;4.20;99.90;;;;;;4864776;29;20404;-76
2024/01/14 06:34:58;;;;;;;8.10;1.77;;;4.10;99.90;;;;;;4864967;29;20071;-76
2024/01/14 06:37:24;;;;;;;12.30;1.83;;;4.00;99.90;;;;;;4864661;29;20060;-76
2024/01/14 06:39:49;;;;;;;17.45;2.15;;;3.90;99.90;;;;;;4864514;29;20076;-76
2024/01/14 06:42:15;;;;;;;18.02;2.10;;;3.90;99.90;;;;;;4864708;29;20084;-76
2024/01/14 06:44:41;;;;;;;10.93;1.80;;;4.00;99.90;;;;;;4864666;29;20101;-76
2024/01/14 06:47:07;;;;;;;16.65;2.10;;;4.10;99.90;;;;;;4864711;29;20100;-76
2024/01/14 06:49:35;;;;;;;18.35;2.80;;;4.20;99.90;;;;;;4864380;29;20508;-76
2024/01/14 06:52:01;;;;;;;22.00;2.65;;;4.30;99.90;;;;;;4864388;29;20057;-76
2024/01/14 06:54:26;;;;;;;21.15;2.75;;;4.30;99.90;;;;;;4864540;29;20052;-76
2024/01/14 06:56:52;;;;;;;10.75;1.58;;;4.40;99.90;;;;;;4864528;29;20083;-76
2024/01/14 06:59:19;;;;;;;9.32;1.73;;;4.40;99.90;;;;;;4864203;29;20382;-76
2024/01/14 07:01:45;;;;;;;15.30;2.05;;;4.40;99.90;;;;;;4864191;29;20044;-76
2024/01/14 07:04:11;;;;;;;12.45;2.58;;;4.40;99.90;;;;;;4864479;29;20148;-76
2024/01/14 07:06:37;;;;;;;14.15;1.73;;;4.50;99.90;;;;;;4863796;29;20514;-76
2024/01/14 07:09:04;;;;;;;11.57;2.40;;;4.50;99.90;;;;;;4864105;29;20560;-76
2024/01/14 07:11:30;;;;;;;14.38;2.85;;;4.50;99.90;;;;;;4864258;29;20139;-76
2024/01/14 07:13:56;;;;;;;15.65;2.28;;;4.50;99.90;;;;;;4864205;29;20127;-76
2024/01/14 07:16:22;;;;;;;13.45;1.65;;;4.50;99.90;;;;;;4863891;29;20458;-76
2024/01/14 07:18:47;;;;;;;19.45;2.72;;;4.50;99.90;;;;;;4864252;29;20041;-76
2024/01/14 07:21:13;;;;;;;15.63;2.67;;;4.40;99.90;;;;;;4864124;29;20072;-76
2024/01/14 07:23:39;;;;;;;27.15;2.15;;;4.40;99.90;;;;;;4863789;29;20076;-76
2024/01/14 07:26:16;;;;;;;14.98;2.33;;;4.50;99.90;;;;;;4864204;29;20045;-76
2024/01/14 07:28:42;;;;;;;10.60;1.80;;;4.50;99.90;;;;;;4863915;29;20068;-76
2024/01/14 07:31:08;;;;;;;11.48;2.30;;;4.60;99.90;;;;;;4863777;29;20057;-76
2024/01/14 07:33:33;;;;;;;14.10;3.40;;;4.50;99.90;;;;;;4863741;29;20045;-76
2024/01/14 07:35:59;;;;;;;8.30;0.90;;;4.60;99.90;;;;;;4863576;29;20057;-76
2024/01/14 07:38:27;;;;;;;6.25;0.77;;;4.60;99.90;;;;;;4863568;29;20049;-76
2024/01/14 07:40:53;;;;;;;4.30;0.70;;;4.60;99.90;;;;;;4863301;29;20560;-76
2024/01/14 07:43:18;;;;;;;2.65;0.45;;;4.60;99.90;;;;;;4862571;29;20049;-76
2024/01/14 07:45:44;;;;;;;2.53;0.25;;;4.60;99.90;;;;;;4863417;29;20060;-76
2024/01/14 07:48:09;;;;;;;4.45;0.65;;;4.60;99.90;;;;;;4863058;29;20075;-76
2024/01/14 07:50:35;;;;;;;4.90;0.55;;;4.60;99.90;;;;;;4863227;29;20101;-76
2024/01/14 07:53:01;;;;;;;9.43;1.13;;;4.60;99.90;;;;;;4863508;29;20045;-76
2024/01/14 07:55:26;;;;;;;6.22;0.70;;;4.60;99.90;;;;;;4880113;29;20560;-76
2024/01/14 07:57:52;;;;;;;7.30;0.90;;;4.60;99.90;;;;;;4880088;29;20041;-77
2024/01/14 08:00:18;;;;;;;11.02;1.27;;;4.50;99.90;;;;;;4862988;29;20065;-77
2024/01/14 08:02:43;;;;;;;7.28;0.80;;;4.50;99.90;;;;;;4862994;29;20076;-77
2024/01/14 08:05:09;;;;;;;11.02;1.70;;;4.50;99.90;;;;;;4863170;29;20065;-76
2024/01/14 08:07:35;;;;;;;13.02;2.08;;;4.50;99.90;;;;;;4862791;29;20053;-76
2024/01/14 08:10:04;;;;;;;12.70;1.63;;;4.50;99.90;;;;;;4863132;29;20052;-77
2024/01/14 08:12:30;;;;;;;14.93;2.67;;;4.50;99.90;;;;;;4863194;29;20057;-77
2024/01/14 08:14:55;;;;;;;13.27;4.10;;;4.40;99.90;;;;;;4863339;29;20056;-76
2024/01/14 08:17:21;;;;;;;13.50;2.45;;;4.40;99.90;;;;;;4863076;29;20522;-76
2024/01/14 08:19:47;;;;;;;7.50;2.55;;;4.40;99.90;;;;;;4863203;29;20060;-77
2024/01/14 08:22:16;;;;;;;12.73;1.67;;;4.40;99.90;;;;;;4863297;29;20614;-77
2024/01/14 08:24:42;;;;;;;12.55;1.20;;;4.50;99.90;;;;;;4862878;29;20057;-76
2024/01/14 08:27:08;;;;;;;14.27;1.83;;;4.40;99.90;;;;;;4863095;29;20072;-76
2024/01/14 08:29:33;;;;;;;9.57;1.90;;;4.40;99.90;;;;;;4862808;29;20507;-76
2024/01/14 08:31:59;;;;;;;12.07;1.90;;;4.30;99.90;;;;;;4863028;29;20053;-76
2024/01/14 08:34:25;;;;;;;7.70;1.63;;;4.30;99.90;;;;;;4862812;29;20045;-75
2024/01/14 08:36:51;;;;;;;13.88;1.92;;;4.20;99.90;;;;;;4863016;29;20053;-76
2024/01/14 08:39:19;;;;;;;20.08;2.60;;;4.20;99.90;;;;;;4862897;29;20057;-76
2024/01/14 08:41:45;;;;;;;12.13;2.20;;;4.10;99.90;;;;;;4862677;29;20048;-76
2024/01/14 08:44:11;;;;;;;15.25;2.20;;;4.00;99.90;;;;;;4863077;29;20140;-77
2024/01/14 08:46:40;;;;;;;23.00;3.67;;;3.90;99.90;;;;;;4856374;29;20140;-75
2024/01/14 08:49:07;;;;;;;15.80;2.58;;;3.90;99.90;;;;;;4850557;29;20041;-75
2024/01/14 08:51:32;;;;;;;11.57;1.98;;;3.80;99.90;;;;;;4843887;29;20058;-76
2024/01/14 08:54:00;;;;;;;12.48;2.13;;;3.80;99.90;;;;;;4844363;29;20052;-75
2024/01/14 08:56:28;;;;;;;16.08;2.75;;;3.90;99.90;;;;;;4843941;29;20050;-75
2024/01/14 08:58:54;;;;;;;19.45;2.20;;;4.00;99.90;;;;;;4844117;29;20087;-75
2024/01/14 09:01:20;;;;;;;11.88;1.98;;;4.00;99.90;;;;;;4863448;29;20049;-76
2024/01/14 09:03:46;;;;;;;11.93;1.40;;;4.20;99.90;;;;;;4847550;29;20117;-79
2024/01/14 09:06:12;;;;;;;45.42;2.90;;;4.30;99.90;;;;;;4847432;29;20565;-80
2024/01/14 09:08:37;;;;;;;9.27;1.65;;;4.50;99.90;;;;;;4847220;29;20409;-75
2024/01/14 09:11:03;;;;;;;9.75;1.40;;;4.60;99.90;;;;;;4847526;29;20148;-75
2024/01/14 09:13:29;;;;;;;11.48;1.38;;;4.80;99.90;;;;;;4847520;29;20095;-75
2024/01/14 09:15:54;;;;;;;9.98;1.33;;;4.90;99.90;;;;;;4847553;29;20085;-75
2024/01/14 09:18:20;;;;;;;5.30;0.98;;;4.90;99.90;;;;;;4847050;29;20140;-76
2024/01/14 09:20:45;;;;;;;11.95;1.27;;;5.00;99.90;;;;;;4847259;29;20050;-75
2024/01/14 09:23:14;;;;;;;15.50;3.72;;;5.10;99.90;;;;;;4847092;29;20092;-75
2024/01/14 09:25:40;;;;;;;9.88;1.50;;;5.10;99.90;;;;;;4847121;29;20132;-76
2024/01/14 09:28:05;;;;;;;6.38;1.33;;;5.10;99.90;;;;;;4847181;29;20140;-76
2024/01/14 09:30:31;;;;;;;8.48;0.88;;;5.10;99.90;;;;;;4846918;29;20060;-75
2024/01/14 09:32:57;;;;;;;7.82;2.13;;;5.10;99.90;;;;;;4846931;29;20084;-75
2024/01/14 09:35:22;;;;;;;14.30;3.28;;;5.10;99.90;;;;;;4847005;29;20550;-75
2024/01/14 09:37:48;;;;;;;10.48;2.33;;;5.20;99.90;;;;;;4846893;29;20160;-76
2024/01/14 09:40:15;;;;;;;14.65;1.67;;;5.20;99.90;;;;;;4846756;29;20168;-77
2024/01/14 09:42:44;;;;;;;12.02;2.38;;;5.30;99.90;;;;;;4846700;29;20049;-77
2024/01/14 09:45:10;;;;;;;13.63;1.70;;;5.40;99.90;;;;;;4847001;29;20076;-77
2024/01/14 09:47:37;;;;;;;10.15;1.02;;;5.50;99.90;;;;;;4846674;29;20417;-76
2024/01/14 09:50:04;;;;;;;13.70;1.42;;;5.50;99.90;;;;;;4846664;29;20150;-75
2024/01/14 09:52:31;;;;;;;11.02;1.77;;;5.60;99.90;;;;;;4846566;29;20056;-81
2024/01/14 09:54:57;;;;;;;5.60;0.80;;;5.60;99.90;;;;;;4846536;29;20097;-76
2024/01/14 09:57:24;;;;;;;10.77;0.98;;;5.50;99.90;;;;;;4846744;29;20053;-76
2024/01/14 09:59:50;;;;;;;5.80;1.27;;;5.50;99.90;;;;;;4846604;29;20076;-77
2024/01/14 10:02:17;;;;;;;11.30;1.83;;;5.40;99.90;;;;;;4846581;29;20057;-77
2024/01/14 10:04:43;;;;;;;13.50;2.15;;;5.30;99.90;;;;;;4846659;29;20505;-77
2024/01/14 10:07:10;;;;;;;11.18;1.58;;;5.30;99.90;;;;;;4846237;29;20046;-76
2024/01/14 10:09:38;;;;;;;14.95;1.38;;;5.40;99.90;;;;;;4846209;29;20078;-76
2024/01/14 10:12:04;;;;;;;11.95;1.88;;;5.40;99.90;;;;;;4862576;29;20112;-76
2024/01/14 10:14:30;;;;;;;11.68;1.23;;;5.50;99.90;;;;;;4846140;29;20041;-77
2024/01/14 10:16:57;;;;;;;4.82;0.68;;;5.60;99.90;;;;;;4846221;29;20057;-77
2024/01/14 10:19:24;;;;;;;8.48;0.90;;;5.60;99.90;;;;;;4846215;29;20061;-77
2024/01/14 10:21:53;;;;;;;10.57;0.82;;;5.50;99.90;;;;;;4846133;29;20058;-76
2024/01/14 10:24:20;;;;;;;5.65;1.15;;;5.50;99.90;;;;;;4846223;29;20053;-77
2024/01/14 10:26:46;;;;;;;12.05;2.08;;;5.50;99.90;;;;;;4846193;29;20052;-77
2024/01/14 10:29:11;;;;;;;14.57;1.13;;;5.50;99.90;;;;;;4862762;29;20041;-76
2024/01/14 10:31:38;;;;;;;10.32;0.85;;;5.50;99.90;;;;;;4846102;29;20439;-77
2024/01/14 10:34:04;;;;;;;7.13;1.17;;;5.50;99.90;;;;;;4845873;29;20073;-77
2024/01/14 10:36:33;;;;;;;14.38;2.92;;;5.60;99.90;;;;;;4846048;29;20058;-76
2024/01/14 10:38:59;;;;;;;7.88;1.65;;;5.60;99.90;;;;;;4845943;29;20387;-77
2024/01/14 10:41:25;;;;;;;11.05;1.77;;;5.70;99.90;;;;;;4862557;29;20059;-76
2024/01/14 10:43:51;;;;;;;7.90;1.15;;;5.80;99.90;;;;;;4862491;29;20128;-76
2024/01/14 10:46:18;;;;;;;12.43;3.58;;;5.80;99.90;;;;;;4845549;29;20042;-78
2024/01/14 10:48:49;;;;;;;8.43;1.70;;;5.80;99.90;;;;;;4862121;29;20625;-77
2024/01/14 10:51:20;;;;;;;15.10;1.98;;;5.90;99.90;;;;;;4845493;29;20136;-76
2024/01/14 10:53:58;;;;;;;13.98;1.42;;;6.00;99.90;;;;;;4845603;29;20102;-76
2024/01/14 10:56:35;;;;;;;5.22;0.60;;;6.00;99.90;;;;;;4845462;29;20088;-77
2024/01/14 10:59:04;;;;;;;7.45;1.20;;;6.10;99.90;;;;;;4845756;29;20061;-76
2024/01/14 11:01:36;;;;;;;5.50;0.80;;;6.20;99.90;;;;;;4862142;29;20493;-76
2024/01/14 11:04:03;;;;;;;10.55;1.10;;;6.20;99.90;;;;;;4845223;29;20049;-76
2024/01/14 11:06:30;;;;;;;12.93;2.30;;;6.30;99.90;;;;;;4845147;29;20049;-77
2024/01/14 11:08:56;;;;;;;11.73;1.00;;;6.40;99.90;;;;;;4845297;29;20053;-76
2024/01/14 11:11:33;;;;;;;15.63;1.25;;;6.40;99.90;;;;;;4845200;29;20050;-76
2024/01/14 11:14:08;;;;;;;10.25;1.13;;;6.50;99.90;;;;;;4845324;29;20124;-76
2024/01/14 11:16:48;;;;;;;13.98;2.17;;;6.50;99.90;;;;;;4845076;29;20480;-76
2024/01/14 11:19:18;;;;;;;9.43;2.28;;;6.50;99.90;;;;;;4845129;29;20407;-76
2024/01/14 11:22:15;;;;;;;4.15;0.75;;;6.60;99.90;;;;;;4844873;29;20128;-76
2024/01/14 11:24:41;;;;;;;6.85;1.02;;;6.80;99.90;;;;;;4844866;29;20045;-76
2024/01/14 11:27:07;;;;;;;7.25;0.80;;;6.70;99.90;;;;;;4845166;29;20060;-76
2024/01/14 11:29:34;;;;;;;9.73;2.45;;;6.90;99.90;;;;;;4844855;29;20401;-76
2024/01/14 11:32:02;;;;;;;8.93;1.13;;;6.90;99.90;;;;;;4844841;29;20409;-76
2024/01/14 11:34:49;;;;;;;11.95;1.67;;;7.00;99.90;;;;;;4845101;29;20132;-76
2024/01/14 11:37:32;;;;;;;4.88;1.00;;;6.90;99.90;;;;;;4844896;29;20049;-76
2024/01/14 11:40:13;;;;;;;12.50;1.60;;;6.70;99.90;;;;;;4845125;29;20102;-76
2024/01/14 11:42:46;;;;;;;7.25;1.20;;;6.80;99.90;;;;;;4844693;29;20514;-76
2024/01/14 11:45:23;;;;;;;13.63;1.08;;;6.70;99.90;;;;;;4845015;29;20078;-75
2024/01/14 11:47:51;;;;;;;9.57;0.90;;;6.70;99.90;;;;;;4844539;29;20382;-79
2024/01/14 11:50:18;;;;;;;12.20;1.08;;;6.70;99.90;;;;;;4844721;29;20132;-75
2024/01/14 11:52:50;;;;;;;8.35;1.00;;;6.60;99.90;;;;;;4844659;29;20053;-76
2024/01/14 11:55:19;;;;;;;12.07;2.40;;;6.60;99.90;;;;;;4844423;29;20405;-76
2024/01/14 11:57:46;;;;;;;9.25;1.05;;;6.50;99.90;;;;;;4855881;29;20512;-76
2024/01/14 12:00:14;;;;;;;12.88;1.00;;;6.50;99.90;;;;;;4881376;29;20409;-75
2024/01/14 12:02:39;;;;;;;7.20;0.73;;;6.50;99.90;;;;;;4881453;29;20049;-75
2024/01/14 12:05:16;;;;;;;9.48;1.27;;;6.50;99.90;;;;;;4881795;29;20059;-75
2024/01/14 12:07:48;;;;;;;5.57;1.08;;;6.50;99.90;;;;;;4881369;29;20497;-76
2024/01/14 12:10:15;;;;;;;8.10;1.52;;;6.60;99.90;;;;;;4881373;29;20077;-76
2024/01/14 12:12:42;;;;;;;7.00;1.30;;;6.70;99.90;;;;;;4881597;29;20076;-76
2024/01/14 12:15:09;;;;;;;11.20;1.10;;;6.80;99.90;;;;;;4873926;29;20048;-75
2024/01/14 12:17:34;;;;;;;9.48;1.20;;;6.90;99.90;;;;;;4862766;29;20561;-75
2024/01/14 12:20:04;;;;;;;7.55;0.68;;;7.10;99.90;;;;;;4863140;29;20140;-75
2024/01/14 12:22:30;;;;;;;6.97;1.15;;;7.30;99.90;;;;;;4862894;29;20055;-75
2024/01/14 12:24:56;;;;;;;5.07;0.50;;;7.20;99.90;;;;;;4862970;29;20049;-77
2024/01/14 12:27:22;;;;;;;6.45;0.63;;;7.20;99.90;;;;;;4862746;29;20417;-76
2024/01/14 12:29:48;;;;;;;5.13;0.93;;;7.10;99.90;;;;;;4862678;29;20080;-77
2024/01/14 12:32:13;;;;;;;7.07;0.68;;;7.00;99.90;;;;;;4879281;29;20049;-76
2024/01/14 12:34:41;;;;;;;7.97;1.05;;;7.00;99.90;;;;;;4864866;29;20544;-75
2024/01/14 12:37:10;;;;;;;8.95;0.98;;;6.80;99.90;;;;;;4883097;29;20049;-74
2024/01/14 12:39:36;;;;;;;6.28;0.85;;;6.80;99.90;;;;;;4866304;29;20045;-75
2024/01/14 12:42:02;;;;;;;4.13;1.30;;;6.40;99.90;;;;;;4866342;29;20069;-75
2024/01/14 12:44:33;;;;;;;3.92;1.00;;;6.20;99.90;;;;;;4866502;29;20064;-78
2024/01/14 12:47:08;;;;;;;4.45;0.50;;;6.20;99.90;;;;;;4866258;29;20045;-75
2024/01/14 12:49:34;;;;;;;11.05;1.13;;;5.90;99.90;;;;;;4865977;29;20048;-75